Time;durP1;ratioP1;P1;durP2;ratioP2;P2;SDS_P1;SDS_P2;PMS_P1;PMS_P2;Temp;Humidity;BMP_temperature;BMP_pressure;BME280_temperature;BME280_humidity;BME280_pressure;Samples;Min_cycle;Max_cycle;Signal;HPM_P1;HPM_P2
2021/01/02 00:01:45;;;;;;;13.30;8.00;;;;;;;7.21;81.10;101018.77;1817454;79;21472;-80
2021/01/02 00:04:56;;;;;;;12.05;8.98;;;;;;;7.16;81.05;101011.56;1787279;79;21376;-83
2021/01/02 00:07:56;;;;;;;13.32;7.35;;;;;;;7.11;81.08;101010.44;1816595;79;21022;-80
2021/01/02 00:10:28;;;;;;;11.43;8.20;;;;;;;7.08;80.99;101011.03;1782659;79;20954;-84
2021/01/02 00:13:32;;;;;;;11.68;7.67;;;;;;;7.00;81.14;101016.10;1786369;79;21434;-81
2021/01/02 00:16:50;;;;;;;10.78;7.83;;;;;;;6.99;81.31;101014.84;1817415;79;20951;-83
2021/01/02 00:19:48;;;;;;;12.80;8.23;;;;;;;6.95;81.42;101004.98;1786485;79;21488;-82
2021/01/02 00:22:36;;;;;;;12.63;8.50;;;;;;;6.95;81.53;101007.59;1817272;78;21436;-79
2021/01/02 00:25:07;;;;;;;13.13;9.20;;;;;;;6.92;81.57;101026.43;1767040;79;21093;-79
2021/01/02 00:27:45;;;;;;;12.23;8.58;;;;;;;6.92;81.59;101028.58;1761527;79;21155;-78
2021/01/02 00:30:43;;;;;;;13.28;8.55;;;;;;;6.92;81.61;101039.00;1817332;78;20997;-83
2021/01/02 00:33:21;;;;;;;12.63;9.10;;;;;;;6.92;81.72;101044.68;1786303;79;21735;-82
2021/01/02 00:35:50;;;;;;;13.05;9.80;;;;;;;6.95;81.82;101052.38;1817295;78;20950;-81
2021/01/02 00:38:18;;;;;;;16.25;11.63;;;;;;;6.98;81.79;101051.81;1786562;79;20931;-79
2021/01/02 00:40:45;;;;;;;15.30;10.03;;;;;;;7.00;81.79;101065.64;1760930;79;22148;-80
2021/01/02 00:43:13;;;;;;;13.25;8.98;;;;;;;7.03;81.61;101075.95;1760779;79;21021;-78
2021/01/02 00:45:41;;;;;;;11.65;8.78;;;;;;;7.09;81.46;101074.00;1786310;79;20899;-79
2021/01/02 00:48:10;;;;;;;12.55;9.50;;;;;;;7.13;81.28;101081.65;1786212;77;20942;-78
2021/01/02 00:50:38;;;;;;;15.88;10.40;;;;;;;7.14;81.28;101072.09;1817218;79;20946;-78
2021/01/02 00:53:24;;;;;;;14.65;9.28;;;;;;;7.16;81.31;101082.86;1738128;79;22082;-78
2021/01/02 00:56:06;;;;;;;13.40;9.40;;;;;;;7.21;81.32;101090.04;1786063;79;21065;-81
2021/01/02 00:58:46;;;;;;;12.98;10.28;;;;;;;7.26;81.08;101098.99;1817231;77;21408;-80
2021/01/02 01:01:23;;;;;;;16.48;9.98;;;;;;;7.25;81.10;101098.15;1769688;79;21133;-78
2021/01/02 01:04:17;;;;;;;12.82;8.45;;;;;;;7.29;80.92;101100.16;1817089;79;21443;-77
2021/01/02 01:06:45;;;;;;;14.03;9.38;;;;;;;7.31;80.93;101104.03;1785569;79;21167;-77
2021/01/02 01:09:14;;;;;;;13.65;9.15;;;;;;;7.31;80.98;101098.81;1761367;79;21124;-78
2021/01/02 01:11:45;;;;;;;18.30;10.48;;;;;;;7.31;81.13;101101.42;1737628;79;21017;-77
2021/01/02 01:14:13;;;;;;;17.48;10.60;;;;;;;7.34;81.05;101107.84;1786390;79;21400;-79
2021/01/02 01:16:44;;;;;;;16.90;10.43;;;;;;;7.34;81.03;101096.95;1787813;79;21478;-79
2021/01/02 01:19:12;;;;;;;12.10;9.78;;;;;;;7.38;80.84;101101.56;1787667;79;21904;-79
2021/01/02 01:21:45;;;;;;;15.15;10.05;;;;;;;7.38;80.69;101108.97;1760963;79;21495;-78
2021/01/02 01:24:35;;;;;;;13.75;10.43;;;;;;;7.35;80.72;101107.77;1787709;79;21018;-78
2021/01/02 01:27:31;;;;;;;18.50;12.10;;;;;;;7.32;80.78;101105.75;1792217;78;21669;-77
2021/01/02 01:30:00;;;;;;;20.12;11.22;;;;;;;7.28;80.77;101102.39;1796061;78;20930;-78
2021/01/02 01:32:29;;;;;;;16.12;11.40;;;;;;;7.23;80.83;101100.42;1794352;78;21161;-79
2021/01/02 01:35:01;;;;;;;19.05;12.13;;;;;;;7.21;80.75;101103.55;1795754;78;20974;-78
2021/01/02 01:37:32;;;;;;;20.12;12.13;;;;;;;7.16;80.79;101103.72;1794512;78;20931;-80
2021/01/02 01:40:00;;;;;;;17.75;10.68;;;;;;;7.11;80.90;101106.09;1794290;78;20915;-78
2021/01/02 01:42:44;;;;;;;14.90;10.65;;;;;;;7.03;81.03;101109.84;1795726;78;20923;-76
2021/01/02 01:45:39;;;;;;;16.15;12.03;;;;;;;6.97;81.19;101102.25;1794483;78;21116;-80
2021/01/02 01:48:12;;;;;;;20.00;12.10;;;;;;;6.89;81.41;101105.58;1795830;78;20979;-80
2021/01/02 01:51:24;;;;;;;20.35;11.95;;;;;;;6.84;81.46;101110.96;1794268;78;20938;-78
2021/01/02 01:54:11;;;;;;;18.75;12.00;;;;;;;6.79;81.66;101117.27;1743901;81;20965;-80
2021/01/02 01:56:44;;;;;;;17.77;13.15;;;;;;;6.71;81.96;101123.20;1746794;81;21039;-78
2021/01/02 01:59:22;;;;;;;20.80;13.15;;;;;;;6.68;82.22;101118.95;1721240;81;21493;-78
2021/01/02 02:01:55;;;;;;;21.37;13.48;;;;;;;6.67;82.42;101126.81;1743934;81;20978;-79
2021/01/02 02:04:51;;;;;;;25.72;14.95;;;;;;;6.65;82.44;101126.89;1744132;81;21041;-78
2021/01/02 02:07:20;;;;;;;24.90;13.20;;;;;;;6.66;82.50;101135.09;1743945;81;20969;-77
2021/01/02 02:10:00;;;;;;;22.07;13.20;;;;;;;6.66;82.43;101136.86;1720273;81;20958;-79
2021/01/02 02:12:54;;;;;;;23.15;13.45;;;;;;;6.69;82.56;101141.95;1846135;76;22305;-80
2021/01/02 02:15:27;;;;;;;24.45;13.53;;;;;;;6.62;82.65;101149.97;1783219;79;21487;-81
2021/01/02 02:18:07;;;;;;;24.02;14.95;;;;;;;6.64;82.83;101155.98;1786463;79;21135;-79
2021/01/02 02:23:18;;;;;;;25.97;16.00;;;;;;;6.74;82.79;101168.27;1816299;79;22488;-78
2021/01/02 02:25:50;;;;;;;26.90;14.68;;;;;;;6.75;82.63;101171.25;1724106;80;20966;-79
2021/01/02 02:29:10;;;;;;;27.45;16.07;;;;;;;6.78;82.51;101166.38;1758626;80;20987;-77
2021/01/02 02:31:46;;;;;;;31.15;17.65;;;;;;;6.75;82.48;101171.25;1758426;80;21009;-78
2021/01/02 02:34:14;;;;;;;27.32;16.10;;;;;;;6.73;82.64;101173.52;1758455;80;21025;-79
2021/01/02 02:36:43;;;;;;;30.32;18.98;;;;;;;6.74;82.63;101173.94;1758560;80;20938;-80
2021/01/02 02:39:14;;;;;;;31.77;19.20;;;;;;;6.77;82.59;101188.15;1758485;80;20974;-79
2021/01/02 02:41:48;;;;;;;32.20;17.62;;;;;;;6.80;82.41;101181.52;1758777;80;22144;-76
2021/01/02 02:44:22;;;;;;;25.57;16.15;;;;;;;6.81;82.31;101185.38;1743827;81;21017;-78
2021/01/02 02:46:54;;;;;;;24.90;15.60;;;;;;;6.80;82.27;101191.94;1704751;80;21359;-77
2021/01/02 02:49:23;;;;;;;29.52;19.20;;;;;;;6.80;82.40;101197.16;1729285;81;20962;-73
2021/01/02 02:52:30;;;;;;;28.42;17.48;;;;;;;6.81;82.38;101203.63;1731886;81;20978;-75
2021/01/02 02:54:59;;;;;;;31.93;18.23;;;;;;;6.83;82.26;101204.89;1732122;81;21128;-76
2021/01/02 02:57:30;;;;;;;33.88;20.17;;;;;;;6.81;82.10;101200.18;1731609;81;21009;-79
2021/01/02 02:59:58;;;;;;;30.97;17.85;;;;;;;6.82;82.01;101209.69;1730518;81;21005;-79
2021/01/02 03:02:27;;;;;;;25.85;17.40;;;;;;;6.82;81.96;101214.44;1729947;81;21033;-79
2021/01/02 03:04:55;;;;;;;26.85;17.62;;;;;;;6.78;81.94;101216.78;1728606;81;21013;-78
2021/01/02 03:07:23;;;;;;;31.17;18.57;;;;;;;6.81;82.07;101218.42;1728508;81;21206;-76
2021/01/02 03:09:51;;;;;;;33.65;18.35;;;;;;;6.82;82.10;101215.74;1728152;81;20977;-78
2021/01/02 03:12:19;;;;;;;34.08;19.12;;;;;;;6.85;82.04;101225.23;1728477;81;20982;-77
2021/01/02 03:14:58;;;;;;;33.28;19.35;;;;;;;6.87;81.91;101232.56;1728347;81;20966;-76
2021/01/02 03:17:26;;;;;;;38.13;22.87;;;;;;;6.90;81.75;101232.90;1728288;81;21471;-77
2021/01/02 03:19:54;;;;;;;35.58;19.20;;;;;;;6.91;81.69;101234.59;1728293;81;21162;-77
2021/01/02 03:22:22;;;;;;;31.23;19.02;;;;;;;6.94;81.73;101239.72;1724941;82;21113;-78
2021/01/02 03:24:50;;;;;;;34.90;20.40;;;;;;;6.95;81.78;101239.64;1723766;82;20954;-78
2021/01/02 03:27:18;;;;;;;37.53;22.48;;;;;;;6.98;81.72;101245.20;1723886;82;21002;-79
2021/01/02 03:29:45;;;;;;;38.13;22.13;;;;;;;6.98;81.61;101253.02;1723760;82;21025;-79
2021/01/02 03:32:13;;;;;;;38.25;22.77;;;;;;;6.95;81.56;101249.22;1723542;82;21408;-79
2021/01/02 03:34:42;;;;;;;37.98;20.30;;;;;;;6.98;81.51;101259.53;1723125;82;21491;-79
2021/01/02 03:37:12;;;;;;;34.55;20.65;;;;;;;6.97;81.50;101258.69;1723809;81;20953;-79
2021/01/02 03:39:40;;;;;;;35.20;19.90;;;;;;;6.96;81.58;101253.09;1723363;82;21412;-79
2021/01/02 03:42:09;;;;;;;37.67;21.35;;;;;;;7.00;81.63;101264.25;1723475;82;20938;-79
2021/01/02 03:44:37;;;;;;;43.08;24.10;;;;;;;7.03;81.66;101268.91;1723426;82;21037;-78
2021/01/02 03:47:09;;;;;;;49.95;25.75;;;;;;;7.07;81.64;101268.37;1725043;82;21021;-78
2021/01/02 03:49:37;;;;;;;47.23;25.45;;;;;;;7.11;81.55;101271.24;1726956;81;20970;-78
2021/01/02 03:52:06;;;;;;;47.27;28.50;;;;;;;7.17;81.33;101279.31;1726864;82;21034;-79
2021/01/02 03:54:34;;;;;;;45.30;27.37;;;;;;;7.20;81.23;101282.69;1726749;82;21026;-79
2021/01/02 03:57:02;;;;;;;53.98;30.25;;;;;;;7.22;81.21;101293.04;1726680;82;21164;-79
2021/01/02 03:59:30;;;;;;;57.00;31.35;;;;;;;7.23;81.34;101298.67;1724499;82;20970;-78
2021/01/02 04:01:58;;;;;;;57.35;33.63;;;;;;;7.26;81.33;101298.55;1723651;82;20998;-78
2021/01/02 04:04:27;;;;;;;58.95;33.48;;;;;;;7.28;81.20;101303.73;1723310;81;21005;-79
2021/01/02 04:06:55;;;;;;;53.70;31.30;;;;;;;7.26;81.05;101307.22;1722911;82;20970;-80
2021/01/02 04:09:23;;;;;;;47.53;30.60;;;;;;;7.24;80.92;101306.88;1723258;82;22003;-79
2021/01/02 04:11:52;;;;;;;45.25;27.75;;;;;;;7.18;80.84;101311.87;1723699;82;20966;-80
2021/01/02 04:14:19;;;;;;;41.10;27.82;;;;;;;7.14;81.15;101314.19;1723709;82;20947;-76
2021/01/02 04:16:47;;;;;;;43.78;27.73;;;;;;;7.12;81.24;101321.21;1723188;82;21487;-76
2021/01/02 04:19:15;;;;;;;43.63;26.50;;;;;;;7.12;81.27;101329.04;1723228;82;20994;-76
2021/01/02 04:21:46;;;;;;;39.90;25.15;;;;;;;7.09;81.15;101339.55;1723196;81;21018;-77
2021/01/02 04:24:14;;;;;;;30.90;20.80;;;;;;;7.04;81.13;101343.62;1717519;82;21424;-77
2021/01/02 04:26:41;;;;;;;29.27;18.37;;;;;;;6.99;81.00;101355.13;1717480;82;20927;-77
2021/01/02 04:29:09;;;;;;;31.77;19.10;;;;;;;6.91;81.18;101359.27;1717703;82;20978;-78
2021/01/02 04:31:39;;;;;;;31.50;19.87;;;;;;;6.86;81.15;101365.10;1717312;82;21030;-79
2021/01/02 04:34:09;;;;;;;35.10;19.45;;;;;;;6.79;81.11;101373.57;1717425;81;21034;-78
2021/01/02 04:36:37;;;;;;;34.25;20.68;;;;;;;6.71;81.16;101379.92;1717316;82;21488;-79
2021/01/02 04:39:05;;;;;;;28.62;19.40;;;;;;;6.64;81.24;101389.69;1717488;82;20982;-78
2021/01/02 04:41:33;;;;;;;31.80;20.05;;;;;;;6.60;81.26;101391.98;1717471;82;21053;-78
2021/01/02 04:44:03;;;;;;;33.50;20.80;;;;;;;6.56;81.33;101396.92;1717617;82;20931;-76
2021/01/02 04:46:31;;;;;;;32.73;20.75;;;;;;;6.50;81.44;101405.77;1717617;82;21169;-76
2021/01/02 04:49:00;;;;;;;29.98;19.12;;;;;;;6.50;81.65;101414.88;1717775;82;21535;-76
2021/01/02 04:51:28;;;;;;;31.42;19.02;;;;;;;6.51;81.63;101418.33;1717789;82;21014;-76
2021/01/02 04:54:04;;;;;;;28.00;19.40;;;;;;;6.48;81.61;101416.67;1717879;82;20994;-77
2021/01/02 04:56:34;;;;;;;37.63;20.95;;;;;;;6.46;81.56;101424.98;1718362;82;20959;-76
2021/01/02 04:59:04;;;;;;;34.00;21.00;;;;;;;6.44;81.57;101430.23;1717856;81;21167;-75
2021/01/02 05:01:32;;;;;;;37.30;20.62;;;;;;;6.43;81.51;101435.52;1692954;82;20982;-78
2021/01/02 05:04:00;;;;;;;29.92;20.32;;;;;;;6.45;81.50;101440.23;1717550;82;20943;-78
2021/01/02 05:06:28;;;;;;;32.00;19.32;;;;;;;6.47;81.58;101444.07;1717201;82;20986;-79
2021/01/02 05:08:56;;;;;;;37.10;20.65;;;;;;;6.52;81.43;101443.50;1717474;82;20958;-78
2021/01/02 05:11:24;;;;;;;35.43;20.62;;;;;;;6.52;81.41;101451.32;1717506;82;22608;-77
2021/01/02 05:14:03;;;;;;;35.08;22.20;;;;;;;6.51;81.49;101453.51;1717361;82;20971;-76
2021/01/02 05:16:39;;;;;;;39.55;22.60;;;;;;;6.51;81.28;101456.11;1717509;82;21484;-77
2021/01/02 05:19:10;;;;;;;41.88;23.10;;;;;;;6.46;81.31;101465.83;1717370;82;21010;-76
2021/01/02 05:21:47;;;;;;;35.43;22.17;;;;;;;6.43;81.27;101472.83;1717462;82;21021;-78
2021/01/02 05:24:17;;;;;;;38.95;23.25;;;;;;;6.44;81.46;101474.52;1717401;82;21213;-78
2021/01/02 05:26:59;;;;;;;39.58;22.77;;;;;;;6.43;81.33;101483.25;1717347;82;21033;-77
2021/01/02 05:29:31;;;;;;;37.65;22.85;;;;;;;6.44;81.53;101485.41;1717529;82;21006;-78
2021/01/02 05:32:04;;;;;;;37.85;23.27;;;;;;;6.43;81.46;101487.16;1717515;80;21472;-77
2021/01/02 05:34:33;;;;;;;38.23;21.65;;;;;;;6.42;81.39;101505.01;1717628;82;20947;-78
2021/01/02 05:37:07;;;;;;;38.15;22.82;;;;;;;6.41;81.37;101508.95;1717537;82;21251;-78
2021/01/02 05:39:43;;;;;;;39.48;24.32;;;;;;;6.35;81.29;101503.91;1717369;82;21046;-78
2021/01/02 05:42:11;;;;;;;42.43;23.05;;;;;;;6.33;81.42;101516.12;1717409;82;20950;-78
2021/01/02 05:44:39;;;;;;;35.13;20.40;;;;;;;6.36;81.58;101524.71;1717330;82;21045;-79
2021/01/02 05:47:14;;;;;;;45.05;24.12;;;;;;;6.41;81.56;101527.19;1717523;82;21022;-79
2021/01/02 05:49:49;;;;;;;37.73;23.57;;;;;;;6.47;81.41;101540.05;1717418;82;21081;-78
2021/01/02 05:52:17;;;;;;;38.63;23.92;;;;;;;6.52;81.09;101546.44;1717155;82;21034;-79
2021/01/02 05:54:50;;;;;;;39.13;24.72;;;;;;;6.53;80.85;101547.67;1717494;82;21054;-79
2021/01/02 05:57:26;;;;;;;37.67;23.15;;;;;;;6.53;80.58;101550.73;1717419;82;20927;-79
2021/01/02 05:59:58;;;;;;;29.75;19.25;;;;;;;6.54;80.42;101556.37;1717559;82;21579;-79
2021/01/02 06:02:29;;;;;;;29.80;20.12;;;;;;;6.58;80.27;101557.53;1717586;82;22588;-80
2021/01/02 06:05:08;;;;;;;26.25;17.37;;;;;;;6.62;80.14;101563.05;1717489;82;21005;-78
2021/01/02 06:07:39;;;;;;;25.20;18.23;;;;;;;6.67;79.97;101568.16;1717388;81;21039;-79
2021/01/02 06:10:09;;;;;;;31.50;18.77;;;;;;;6.70;79.61;101574.57;1717604;82;21040;-79
2021/01/02 06:12:38;;;;;;;27.80;18.15;;;;;;;6.73;79.31;101581.44;1717374;82;20974;-77
2021/01/02 06:15:14;;;;;;;27.85;17.98;;;;;;;6.74;78.98;101584.47;1717279;82;21146;-82
2021/01/02 06:17:46;;;;;;;21.62;14.28;;;;;;;6.74;78.69;101593.59;1717410;82;20991;-77
2021/01/02 06:20:17;;;;;;;26.87;17.80;;;;;;;6.74;78.54;101601.42;1717614;82;21042;-79
2021/01/02 06:22:46;;;;;;;30.02;18.30;;;;;;;6.72;78.44;101606.66;1719796;81;21017;-80
2021/01/02 06:25:14;;;;;;;28.25;18.67;;;;;;;6.74;78.43;101619.66;1725051;81;21641;-81
2021/01/02 06:27:44;;;;;;;24.95;17.25;;;;;;;6.74;78.30;101618.36;1725136;81;21101;-80
2021/01/02 06:30:18;;;;;;;23.07;16.73;;;;;;;6.72;78.05;101623.61;1726001;81;21142;-80
2021/01/02 06:32:47;;;;;;;28.10;17.27;;;;;;;6.69;77.99;101630.19;1728549;80;20982;-79
2021/01/02 06:35:21;;;;;;;23.95;15.98;;;;;;;6.68;77.92;101628.49;1727867;81;21017;-81
2021/01/02 06:38:01;;;;;;;22.32;14.78;;;;;;;6.68;77.68;101631.55;1726732;81;20946;-78
2021/01/02 06:40:45;;;;;;;23.55;15.53;;;;;;;6.64;77.58;101638.13;1725885;81;21171;-81
2021/01/02 06:43:17;;;;;;;28.27;16.37;;;;;;;6.61;77.75;101639.53;1724691;81;20954;-78
2021/01/02 06:45:54;;;;;;;22.85;15.83;;;;;;;6.58;77.66;101647.88;1724720;81;21018;-79
2021/01/02 06:48:29;;;;;;;27.45;16.05;;;;;;;6.57;77.76;101657.91;1723983;81;21021;-79
2021/01/02 06:51:01;;;;;;;19.30;14.30;;;;;;;6.60;77.62;101661.30;1724884;81;20974;-79
2021/01/02 06:53:35;;;;;;;25.97;15.08;;;;;;;6.60;77.40;101668.23;1721396;81;22152;-79
2021/01/02 06:56:09;;;;;;;23.90;14.33;;;;;;;6.56;77.21;101677.06;1725582;81;20990;-80
2021/01/02 06:58:48;;;;;;;25.17;16.30;;;;;;;6.52;76.82;101680.63;1726414;81;20974;-82
2021/01/02 07:01:22;;;;;;;22.15;15.53;;;;;;;6.46;76.75;101689.91;1725147;81;21040;-83
2021/01/02 07:03:50;;;;;;;20.62;14.28;;;;;;;6.41;76.79;101692.17;1724667;81;20966;-80
2021/01/02 07:06:24;;;;;;;19.98;13.93;;;;;;;6.37;76.71;101692.30;1724712;81;22029;-81
2021/01/02 07:09:02;;;;;;;22.75;14.13;;;;;;;6.33;76.36;101695.86;1725630;81;21511;-80
2021/01/02 07:11:34;;;;;;;19.00;14.07;;;;;;;6.28;76.51;101696.44;1724990;81;20946;-80
2021/01/02 07:14:15;;;;;;;23.50;14.50;;;;;;;6.20;76.41;101698.79;1724831;81;20986;-81
2021/01/02 07:17:01;;;;;;;21.12;14.23;;;;;;;6.20;76.58;101706.60;1724911;81;20954;-78
2021/01/02 07:19:43;;;;;;;22.62;15.25;;;;;;;6.21;76.60;101708.30;1724723;81;20974;-78
2021/01/02 07:22:21;;;;;;;18.30;13.18;;;;;;;6.22;76.84;101716.54;1724636;81;21005;-80
2021/01/02 07:25:04;;;;;;;22.10;14.35;;;;;;;6.27;76.79;101724.23;1754473;81;20950;-80
2021/01/02 07:27:36;;;;;;;20.97;14.10;;;;;;;6.30;76.67;101724.61;1724220;81;20989;-80
2021/01/02 07:30:10;;;;;;;25.62;14.63;;;;;;;6.37;76.46;101735.28;1725008;81;20958;-81
2021/01/02 07:32:39;;;;;;;;;;;;;;;6.37;76.20;101736.58;1727394;81;21170;-80
2021/01/02 07:35:12;;;;;;;20.97;13.93;;;;;;;6.37;76.18;101740.03;1724861;81;20449;-78
2021/01/02 07:37:44;;;;;;;24.72;17.48;;;;;;;6.37;76.19;101741.34;1724730;81;20938;-80
2021/01/02 07:40:19;;;;;;;21.73;14.87;;;;;;;6.39;76.04;101745.22;1724769;81;20974;-79
2021/01/02 07:42:51;;;;;;;15.50;12.07;;;;;;;6.41;75.81;101747.34;1724828;81;20939;-81
2021/01/02 07:45:25;;;;;;;18.77;12.90;;;;;;;6.41;75.48;101753.86;1724689;81;20978;-80
2021/01/02 07:47:55;;;;;;;17.77;11.83;;;;;;;6.32;75.46;101769.26;1724635;81;20978;-79
2021/01/02 07:50:25;;;;;;;21.35;13.55;;;;;;;6.30;75.54;101775.41;1724841;81;21517;-79
2021/01/02 07:52:58;;;;;;;14.25;11.48;;;;;;;6.29;75.36;101782.79;1724716;81;21527;-80
2021/01/02 07:55:31;;;;;;;18.65;11.08;;;;;;;6.30;75.29;101784.52;1724855;81;21451;-80
2021/01/02 07:58:00;;;;;;;15.48;10.03;;;;;;;6.27;74.72;101786.75;1724789;81;21981;-79
2021/01/02 08:00:28;;;;;;;12.58;9.28;;;;;;;6.22;74.55;101784.68;1724699;81;21049;-78
2021/01/02 08:03:04;;;;;;;14.58;8.75;;;;;;;6.21;74.65;101786.44;1724861;81;21396;-80
2021/01/02 08:05:32;;;;;;;12.35;8.78;;;;;;;6.22;74.75;101792.50;1725044;81;21641;-80
2021/01/02 08:08:02;;;;;;;22.45;12.78;;;;;;;6.21;74.38;101792.95;1724936;81;20954;-78
2021/01/02 08:10:31;;;;;;;16.45;10.00;;;;;;;6.21;74.64;101797.31;1724813;81;21020;-79
2021/01/02 08:13:02;;;;;;;11.73;7.87;;;;;;;6.22;74.40;101802.91;1724695;81;20989;-79
2021/01/02 08:15:34;;;;;;;12.73;8.48;;;;;;;6.20;74.24;101812.09;1724826;81;20954;-78
2021/01/02 08:18:09;;;;;;;10.08;7.55;;;;;;;6.14;74.35;101803.55;1724642;81;20954;-78
2021/01/02 08:20:38;;;;;;;13.13;8.23;;;;;;;6.13;74.26;101814.39;1724915;81;20974;-77
2021/01/02 08:23:18;;;;;;;10.50;7.00;;;;;;;6.17;74.84;101812.59;1724305;81;21271;-79
2021/01/02 08:25:45;;;;;;;11.63;8.15;;;;;;;6.25;75.06;101820.22;1724345;81;21447;-79
2021/01/02 08:28:13;;;;;;;17.17;8.48;;;;;;;6.32;74.67;101814.00;1724834;81;20970;-79
2021/01/02 08:30:41;;;;;;;12.35;9.23;;;;;;;6.39;74.63;101814.27;1699854;81;20950;-80
2021/01/02 08:33:12;;;;;;;13.28;9.28;;;;;;;6.44;74.08;101809.79;1701295;81;20926;-79
2021/01/02 08:35:43;;;;;;;16.15;10.53;;;;;;;6.48;74.27;101812.73;1701531;81;21240;-82
2021/01/02 08:38:12;;;;;;;12.35;8.35;;;;;;;6.53;74.43;101824.35;1724813;81;21049;-80
2021/01/02 08:40:42;;;;;;;13.10;8.93;;;;;;;6.56;74.15;101827.75;1724865;81;20934;-79
2021/01/02 08:43:26;;;;;;;12.18;8.75;;;;;;;6.63;74.12;101824.09;1724652;81;20958;-79
2021/01/02 08:46:01;;;;;;;15.23;10.00;;;;;;;6.68;73.97;101834.87;1724851;81;21009;-76
2021/01/02 08:48:30;;;;;;;12.30;8.58;;;;;;;6.72;73.82;101834.75;1724775;81;21644;-79
2021/01/02 08:50:58;;;;;;;13.22;9.18;;;;;;;6.77;73.74;101839.40;1724579;81;20974;-76
2021/01/02 08:53:33;;;;;;;14.15;10.08;;;;;;;6.82;73.42;101841.89;1724908;81;20974;-76
2021/01/02 08:56:30;;;;;;;14.83;8.60;;;;;;;6.83;72.99;101843.17;1724731;81;21019;-77
2021/01/02 08:58:59;;;;;;;13.93;9.10;;;;;;;6.81;73.09;101846.25;1724698;80;21126;-80
2021/01/02 09:01:31;;;;;;;12.20;9.75;;;;;;;6.83;73.04;101856.66;1724820;81;21247;-79
2021/01/02 09:04:12;;;;;;;10.65;8.10;;;;;;;6.81;73.11;101855.84;1724624;81;20962;-78
2021/01/02 09:06:40;;;;;;;11.97;8.20;;;;;;;6.82;72.96;101857.53;1724805;81;21377;-78
2021/01/02 09:09:08;;;;;;;9.65;6.90;;;;;;;6.83;72.67;101862.72;1724790;81;21471;-79
2021/01/02 09:11:50;;;;;;;11.15;8.23;;;;;;;6.82;72.77;101862.75;1724800;81;21468;-78
2021/01/02 09:14:18;;;;;;;11.30;7.45;;;;;;;6.84;73.08;101865.72;1724813;81;22426;-78
2021/01/02 09:17:03;;;;;;;9.13;7.05;;;;;;;6.91;72.98;101867.73;1724819;80;21031;-78
2021/01/02 09:19:33;;;;;;;9.43;7.62;;;;;;;6.93;72.59;101863.34;1724232;81;21252;-79
2021/01/02 09:22:01;;;;;;;8.25;6.20;;;;;;;6.93;72.81;101863.80;1724418;81;20966;-78
2021/01/02 09:24:31;;;;;;;11.57;8.65;;;;;;;6.94;72.35;101857.25;1724926;81;21519;-78
2021/01/02 09:26:59;;;;;;;15.10;12.03;;;;;;;6.88;72.46;101862.61;1724568;81;21598;-79
2021/01/02 09:29:26;;;;;;;16.97;15.20;;;;;;;6.87;72.64;101866.55;1724761;81;21033;-78
2021/01/02 09:31:54;;;;;;;11.43;8.80;;;;;;;6.87;72.50;101871.34;1724638;81;21001;-76
2021/01/02 09:34:22;;;;;;;14.30;8.80;;;;;;;6.89;72.64;101868.67;1724772;81;21522;-77
2021/01/02 09:36:53;;;;;;;11.63;8.13;;;;;;;6.93;72.24;101867.25;1724514;81;21512;-79
2021/01/02 09:39:23;;;;;;;12.50;7.75;;;;;;;6.93;72.04;101858.58;1724482;81;21034;-79
2021/01/02 09:41:51;;;;;;;10.08;7.53;;;;;;;6.90;72.14;101870.40;1724696;81;20986;-79
2021/01/02 09:44:20;;;;;;;11.48;8.90;;;;;;;6.87;72.34;101871.34;1724623;81;21058;-79
2021/01/02 09:46:51;;;;;;;10.35;8.50;;;;;;;6.87;72.15;101872.64;1724323;81;21049;-78
2021/01/02 09:49:19;;;;;;;9.80;7.08;;;;;;;6.84;71.83;101869.63;1724398;81;21376;-78
2021/01/02 09:51:48;;;;;;;9.80;7.92;;;;;;;6.82;71.64;101872.72;1724521;81;21907;-79
2021/01/02 09:54:16;;;;;;;10.75;7.35;;;;;;;6.81;71.44;101881.91;1724306;81;21715;-80
2021/01/02 09:56:45;;;;;;;11.97;7.40;;;;;;;6.77;71.41;101874.59;1724720;81;21583;-79
2021/01/02 09:59:15;;;;;;;9.48;8.25;;;;;;;6.72;71.35;101872.55;1724660;81;21088;-78
2021/01/02 10:01:43;;;;;;;10.30;8.05;;;;;;;6.70;71.33;101880.86;1724481;81;21373;-80
2021/01/02 10:04:11;;;;;;;10.25;8.50;;;;;;;6.70;71.52;101886.52;1724856;80;21158;-80
2021/01/02 10:06:44;;;;;;;8.83;7.05;;;;;;;6.67;71.56;101890.48;1725337;81;20958;-80
2021/01/02 10:09:13;;;;;;;8.73;7.83;;;;;;;6.62;71.70;101882.31;1726597;81;20942;-76
2021/01/02 10:11:44;;;;;;;8.35;7.10;;;;;;;6.61;71.64;101886.28;1727561;80;21077;-80
2021/01/02 10:14:12;;;;;;;10.90;8.10;;;;;;;6.65;71.59;101886.63;1726332;81;20962;-77
2021/01/02 10:16:40;;;;;;;10.28;7.35;;;;;;;6.67;71.35;101886.57;1725646;81;20981;-76
2021/01/02 10:19:09;;;;;;;7.92;7.12;;;;;;;6.66;71.31;101890.09;1724709;81;20970;-77
2021/01/02 10:21:37;;;;;;;10.48;7.25;;;;;;;6.63;71.17;101889.27;1724745;81;21041;-77
2021/01/02 10:24:07;;;;;;;9.50;6.90;;;;;;;6.60;71.25;101883.25;1721052;82;21467;-77
2021/01/02 10:26:35;;;;;;;9.68;6.97;;;;;;;6.62;71.37;101888.83;1693854;82;21006;-79
2021/01/02 10:29:04;;;;;;;10.15;7.67;;;;;;;6.68;71.36;101900.03;1717325;82;22073;-77
2021/01/02 10:31:33;;;;;;;8.90;7.45;;;;;;;6.73;71.19;101893.80;1717246;81;20963;-80
2021/01/02 10:34:01;;;;;;;8.28;7.40;;;;;;;6.79;71.18;101886.30;1717286;82;21408;-77
2021/01/02 10:36:29;;;;;;;9.03;7.45;;;;;;;6.85;70.78;101887.02;1717101;82;20950;-74
2021/01/02 10:38:57;;;;;;;9.08;7.85;;;;;;;6.87;70.62;101890.02;1717311;80;21009;-73
2021/01/02 10:41:25;;;;;;;8.25;7.37;;;;;;;6.86;70.53;101887.86;1717356;82;21069;-76
2021/01/02 10:43:53;;;;;;;9.75;7.78;;;;;;;6.85;70.58;101887.02;1718240;82;20935;-73
2021/01/02 10:46:21;;;;;;;7.47;6.78;;;;;;;6.88;70.19;101891.74;1719421;82;21381;-73
2021/01/02 10:48:49;;;;;;;6.83;6.12;;;;;;;6.93;69.86;101897.23;1718622;82;20978;-75
2021/01/02 10:51:19;;;;;;;11.30;8.90;;;;;;;6.94;70.06;101897.67;1717206;82;21034;-74
2021/01/02 10:53:47;;;;;;;8.85;7.25;;;;;;;6.97;70.32;101893.67;1717456;82;22872;-74
2021/01/02 10:56:19;;;;;;;9.58;8.38;;;;;;;7.03;70.18;101902.66;1717432;82;21069;-75
2021/01/02 10:58:47;;;;;;;8.98;7.92;;;;;;;7.11;69.73;101904.20;1717215;82;21006;-74
2021/01/02 11:01:15;;;;;;;18.67;13.68;;;;;;;7.16;69.28;101898.00;1717274;82;20979;-76
2021/01/02 11:03:43;;;;;;;12.15;9.05;;;;;;;7.18;69.22;101908.37;1717478;82;21512;-74
2021/01/02 11:06:14;;;;;;;10.45;8.58;;;;;;;7.17;69.21;101910.59;1717573;82;20983;-72
2021/01/02 11:08:42;;;;;;;13.32;9.03;;;;;;;7.18;69.16;101913.17;1717175;82;20994;-73
2021/01/02 11:11:10;;;;;;;11.18;8.83;;;;;;;7.15;68.61;101913.22;1717482;82;21420;-74
2021/01/02 11:13:37;;;;;;;14.70;9.40;;;;;;;7.10;68.74;101916.41;1670844;82;21610;-73
2021/01/02 11:16:05;;;;;;;12.60;9.35;;;;;;;7.06;68.94;101913.00;1717229;82;20970;-76
2021/01/02 11:18:33;;;;;;;10.50;8.63;;;;;;;7.13;68.94;101912.86;1717412;82;21274;-75
2021/01/02 11:21:01;;;;;;;11.22;9.68;;;;;;;7.20;68.96;101906.58;1717206;82;20966;-73
2021/01/02 11:23:29;;;;;;;13.15;10.70;;;;;;;7.29;68.95;101910.72;1717274;81;21030;-73
2021/01/02 11:25:57;;;;;;;18.95;10.03;;;;;;;7.34;68.59;101915.39;1717485;82;21030;-73
2021/01/02 11:28:25;;;;;;;20.25;15.40;;;;;;;7.40;68.40;101916.52;1717442;82;21045;-74
2021/01/02 11:30:53;;;;;;;26.42;19.70;;;;;;;7.38;68.00;101916.58;1717423;82;21175;-74
2021/01/02 11:33:21;;;;;;;25.15;18.92;;;;;;;7.35;67.54;101908.80;1717247;82;20970;-73
2021/01/02 11:35:50;;;;;;;19.55;15.35;;;;;;;7.31;67.44;101914.14;1717240;82;21061;-73
2021/01/02 11:38:17;;;;;;;23.98;14.87;;;;;;;7.31;67.70;101929.34;1716829;82;21503;-73
2021/01/02 11:40:45;;;;;;;17.98;14.65;;;;;;;7.35;67.59;101927.53;1717019;82;21610;-71
2021/01/02 11:43:13;;;;;;;18.60;14.23;;;;;;;7.35;67.79;101927.53;1717271;82;21500;-74
2021/01/02 11:45:41;;;;;;;19.92;14.53;;;;;;;7.41;67.88;101937.81;1717414;82;20946;-70
2021/01/02 11:48:10;;;;;;;22.98;16.52;;;;;;;7.45;67.92;101935.09;1717586;80;20974;-71
2021/01/02 11:50:39;;;;;;;21.30;17.23;;;;;;;7.50;67.35;101938.03;1694238;82;21474;-72